Terminal Aerodrome Forecast
Issued by NWS Tampa Bay Area, FL

Home | Current Version | Previous Version | Text Only | Print | Product List | Glossary On
Versions: 1 2 3 4 5 6 7 8 9 10 11 12 13 14 15 16 17 18 19 20 21 22 23 24 25 26
878
FTUS42 KTBW 231447 AAA
TAFTPA
TAF AMD
KTPA 231447Z 2315/2412 36010KT P6SM SCT010 BKN030 OVC080
      TEMPO 2315/2316 BKN010
     FM231700 01010KT P6SM SCT030 SCT120
     FM240800 01006KT 6SM BR SCT005=

USA.gov is the U.S. government's official web portal to all federal, state and local government web resources and services.